sensor_id;sensor_type;location;lat;lon;timestamp;pressure;altitude;pressure_sealevel;temperature;humidity
75006;BME280;63553;51.814;4.600;2023-07-13T00:02:16;101510.63;;;20.47;59.60
75006;BME280;63553;51.814;4.600;2023-07-13T00:04:41;101512.50;;;21.04;58.51
75006;BME280;63553;51.814;4.600;2023-07-13T00:07:07;101514.03;;;21.21;57.70
75006;BME280;63553;51.814;4.600;2023-07-13T00:09:33;101510.72;;;20.96;58.92
75006;BME280;63553;51.814;4.600;2023-07-13T00:11:59;101515.34;;;21.27;57.65
75006;BME280;63553;51.814;4.600;2023-07-13T00:14:25;101516.63;;;20.46;59.30
75006;BME280;63553;51.814;4.600;2023-07-13T00:16:51;101523.25;;;20.54;58.87
75006;BME280;63553;51.814;4.600;2023-07-13T00:19:17;101522.41;;;20.15;60.46
75006;BME280;63553;51.814;4.600;2023-07-13T00:21:42;101525.97;;;20.69;60.00
75006;BME280;63553;51.814;4.600;2023-07-13T00:24:11;101524.72;;;21.09;58.47
75006;BME280;63553;51.814;4.600;2023-07-13T00:26:41;101522.00;;;21.38;58.33
75006;BME280;63553;51.814;4.600;2023-07-13T00:29:11;101526.34;;;20.68;58.19
75006;BME280;63553;51.814;4.600;2023-07-13T00:31:36;101522.34;;;20.91;58.70
75006;BME280;63553;51.814;4.600;2023-07-13T00:34:02;101517.84;;;20.87;59.29
75006;BME280;63553;51.814;4.600;2023-07-13T00:36:29;101513.94;;;20.95;57.70
75006;BME280;63553;51.814;4.600;2023-07-13T00:38:56;101526.16;;;20.57;58.74
75006;BME280;63553;51.814;4.600;2023-07-13T00:41:21;101520.88;;;21.20;58.00
75006;BME280;63553;51.814;4.600;2023-07-13T00:43:46;101522.91;;;20.78;58.44
75006;BME280;63553;51.814;4.600;2023-07-13T00:46:14;101518.25;;;20.47;58.86
75006;BME280;63553;51.814;4.600;2023-07-13T00:48:40;101516.00;;;21.17;58.71
75006;BME280;63553;51.814;4.600;2023-07-13T00:51:06;101512.09;;;20.41;58.93
75006;BME280;63553;51.814;4.600;2023-07-13T00:53:32;101518.53;;;20.80;59.30
75006;BME280;63553;51.814;4.600;2023-07-13T00:55:59;101520.19;;;20.43;60.50
75006;BME280;63553;51.814;4.600;2023-07-13T00:58:28;101512.72;;;21.15;59.02
75006;BME280;63553;51.814;4.600;2023-07-13T01:00:54;101513.28;;;20.82;59.36
75006;BME280;63553;51.814;4.600;2023-07-13T01:03:20;101516.16;;;21.28;58.63
75006;BME280;63553;51.814;4.600;2023-07-13T01:05:48;101528.97;;;20.57;60.62
75006;BME280;63553;51.814;4.600;2023-07-13T01:08:15;101526.41;;;20.90;60.32
75006;BME280;63553;51.814;4.600;2023-07-13T01:10:41;101525.19;;;20.91;59.06
75006;BME280;63553;51.814;4.600;2023-07-13T01:13:08;101535.41;;;20.77;59.75
75006;BME280;63553;51.814;4.600;2023-07-13T01:18:00;101534.56;;;20.95;60.31
75006;BME280;63553;51.814;4.600;2023-07-13T01:20:25;101540.72;;;21.01;59.86
75006;BME280;63553;51.814;4.600;2023-07-13T01:22:50;101533.91;;;20.83;60.34
75006;BME280;63553;51.814;4.600;2023-07-13T01:25:16;101534.59;;;21.18;59.53
75006;BME280;63553;51.814;4.600;2023-07-13T01:27:42;101544.22;;;21.14;58.85
75006;BME280;63553;51.814;4.600;2023-07-13T01:30:07;101537.75;;;20.94;59.69
75006;BME280;63553;51.814;4.600;2023-07-13T01:32:33;101537.97;;;21.04;58.78
75006;BME280;63553;51.814;4.600;2023-07-13T01:34:59;101535.91;;;20.82;60.43
75006;BME280;63553;51.814;4.600;2023-07-13T01:37:25;101535.56;;;20.84;60.54
75006;BME280;63553;51.814;4.600;2023-07-13T01:39:51;101538.41;;;20.65;61.65
75006;BME280;63553;51.814;4.600;2023-07-13T01:42:17;101540.88;;;20.47;61.77
75006;BME280;63553;51.814;4.600;2023-07-13T01:44:42;101544.41;;;19.55;64.25
75006;BME280;63553;51.814;4.600;2023-07-13T01:47:08;101546.44;;;19.89;63.69
75006;BME280;63553;51.814;4.600;2023-07-13T01:49:33;101551.69;;;20.64;61.47
75006;BME280;63553;51.814;4.600;2023-07-13T01:51:59;101550.13;;;20.09;63.43
75006;BME280;63553;51.814;4.600;2023-07-13T01:54:24;101545.31;;;18.97;66.40
75006;BME280;63553;51.814;4.600;2023-07-13T01:56:50;101557.28;;;18.38;70.37
75006;BME280;63553;51.814;4.600;2023-07-13T01:59:15;101553.53;;;18.46;70.67
75006;BME280;63553;51.814;4.600;2023-07-13T02:01:41;101563.09;;;17.65;72.03
75006;BME280;63553;51.814;4.600;2023-07-13T02:04:06;101566.91;;;17.97;70.68
75006;BME280;63553;51.814;4.600;2023-07-13T02:06:31;101561.16;;;18.46;69.03
75006;BME280;63553;51.814;4.600;2023-07-13T02:08:58;101559.31;;;19.24;65.47
75006;BME280;63553;51.814;4.600;2023-07-13T02:11:23;101561.97;;;19.64;66.11
75006;BME280;63553;51.814;4.600;2023-07-13T02:13:50;101554.75;;;19.82;65.41
75006;BME280;63553;51.814;4.600;2023-07-13T02:16:15;101556.56;;;19.12;66.12
75006;BME280;63553;51.814;4.600;2023-07-13T02:18:41;101559.34;;;19.56;65.53
75006;BME280;63553;51.814;4.600;2023-07-13T02:21:06;101554.78;;;19.35;66.38
75006;BME280;63553;51.814;4.600;2023-07-13T02:23:32;101559.38;;;19.12;66.60
75006;BME280;63553;51.814;4.600;2023-07-13T02:25:58;101565.66;;;18.62;69.02
75006;BME280;63553;51.814;4.600;2023-07-13T02:28:24;101558.00;;;18.35;70.19
75006;BME280;63553;51.814;4.600;2023-07-13T02:30:50;101559.03;;;18.03;71.12
75006;BME280;63553;51.814;4.600;2023-07-13T02:33:15;101563.59;;;18.19;71.33
75006;BME280;63553;51.814;4.600;2023-07-13T02:35:41;101564.28;;;18.56;69.71
75006;BME280;63553;51.814;4.600;2023-07-13T02:38:06;101561.81;;;19.42;65.53
75006;BME280;63553;51.814;4.600;2023-07-13T02:40:32;101566.22;;;18.68;68.78
75006;BME280;63553;51.814;4.600;2023-07-13T02:43:02;101559.91;;;18.86;69.68
75006;BME280;63553;51.814;4.600;2023-07-13T02:45:27;101558.28;;;18.18;71.40
75006;BME280;63553;51.814;4.600;2023-07-13T02:47:53;101557.56;;;19.04;66.91
75006;BME280;63553;51.814;4.600;2023-07-13T02:50:19;101561.06;;;18.70;69.01
75006;BME280;63553;51.814;4.600;2023-07-13T02:52:44;101561.72;;;19.54;67.21
75006;BME280;63553;51.814;4.600;2023-07-13T02:55:10;101559.22;;;19.36;67.03
75006;BME280;63553;51.814;4.600;2023-07-13T02:57:35;101557.84;;;19.30;67.85
75006;BME280;63553;51.814;4.600;2023-07-13T03:00:02;101550.53;;;19.92;64.88
75006;BME280;63553;51.814;4.600;2023-07-13T03:02:31;101562.78;;;19.49;67.25
75006;BME280;63553;51.814;4.600;2023-07-13T03:04:57;101559.69;;;19.54;66.91
75006;BME280;63553;51.814;4.600;2023-07-13T03:07:22;101552.44;;;19.88;65.98
75006;BME280;63553;51.814;4.600;2023-07-13T03:09:48;101549.84;;;19.98;64.87
75006;BME280;63553;51.814;4.600;2023-07-13T03:12:13;101557.50;;;19.63;65.60
75006;BME280;63553;51.814;4.600;2023-07-13T03:14:39;101558.22;;;19.60;65.51
75006;BME280;63553;51.814;4.600;2023-07-13T03:17:04;101566.50;;;19.37;65.60
75006;BME280;63553;51.814;4.600;2023-07-13T03:19:30;101558.34;;;19.48;66.46
75006;BME280;63553;51.814;4.600;2023-07-13T03:21:55;101565.53;;;19.61;65.00
75006;BME280;63553;51.814;4.600;2023-07-13T03:24:21;101568.59;;;19.09;66.13
75006;BME280;63553;51.814;4.600;2023-07-13T03:26:48;101565.63;;;19.49;66.94
75006;BME280;63553;51.814;4.600;2023-07-13T03:29:14;101567.00;;;19.90;65.96
75006;BME280;63553;51.814;4.600;2023-07-13T03:31:40;101566.59;;;19.25;67.02
75006;BME280;63553;51.814;4.600;2023-07-13T03:34:05;101565.72;;;19.53;66.08
75006;BME280;63553;51.814;4.600;2023-07-13T03:36:31;101565.88;;;19.28;67.04
75006;BME280;63553;51.814;4.600;2023-07-13T03:38:59;101570.75;;;19.78;66.43
75006;BME280;63553;51.814;4.600;2023-07-13T03:41:25;101576.56;;;19.51;66.93
75006;BME280;63553;51.814;4.600;2023-07-13T03:43:51;101564.53;;;20.04;65.77
75006;BME280;63553;51.814;4.600;2023-07-13T03:46:18;101578.41;;;19.78;65.18
75006;BME280;63553;51.814;4.600;2023-07-13T03:48:45;101584.09;;;19.62;65.98
75006;BME280;63553;51.814;4.600;2023-07-13T03:51:12;101582.44;;;19.30;66.53
75006;BME280;63553;51.814;4.600;2023-07-13T03:53:40;101585.16;;;19.42;67.30
75006;BME280;63553;51.814;4.600;2023-07-13T03:56:06;101592.38;;;19.55;67.25
75006;BME280;63553;51.814;4.600;2023-07-13T03:58:34;101593.88;;;19.21;68.35
75006;BME280;63553;51.814;4.600;2023-07-13T04:01:01;101590.97;;;19.33;67.35
75006;BME280;63553;51.814;4.600;2023-07-13T04:03:28;101590.16;;;20.30;64.87
75006;BME280;63553;51.814;4.600;2023-07-13T04:05:58;101588.47;;;18.85;68.57
75006;BME280;63553;51.814;4.600;2023-07-13T04:08:25;101601.38;;;17.82;74.55
75006;BME280;63553;51.814;4.600;2023-07-13T04:10:51;101601.94;;;19.51;68.47
75006;BME280;63553;51.814;4.600;2023-07-13T04:13:16;101600.28;;;19.50;68.25
75006;BME280;63553;51.814;4.600;2023-07-13T04:15:41;101597.38;;;19.62;65.88
75006;BME280;63553;51.814;4.600;2023-07-13T04:18:07;101600.84;;;19.71;68.33
75006;BME280;63553;51.814;4.600;2023-07-13T04:20:32;101600.19;;;20.12;65.28
75006;BME280;63553;51.814;4.600;2023-07-13T04:22:58;101603.53;;;21.10;63.49
75006;BME280;63553;51.814;4.600;2023-07-13T04:25:23;101606.59;;;20.44;65.13
75006;BME280;63553;51.814;4.600;2023-07-13T04:27:49;101604.38;;;20.18;64.55
75006;BME280;63553;51.814;4.600;2023-07-13T04:30:15;101597.13;;;21.36;62.54
75006;BME280;63553;51.814;4.600;2023-07-13T04:32:40;101597.56;;;22.69;57.10
75006;BME280;63553;51.814;4.600;2023-07-13T04:35:06;101589.47;;;23.01;56.04
75006;BME280;63553;51.814;4.600;2023-07-13T04:37:31;101615.50;;;23.10;56.05
75006;BME280;63553;51.814;4.600;2023-07-13T04:39:57;101606.53;;;22.71;56.87
75006;BME280;63553;51.814;4.600;2023-07-13T04:42:22;101609.88;;;23.17;56.11
75006;BME280;63553;51.814;4.600;2023-07-13T04:44:51;101606.06;;;22.69;56.99
75006;BME280;63553;51.814;4.600;2023-07-13T04:47:20;101604.66;;;23.22;56.09
75006;BME280;63553;51.814;4.600;2023-07-13T04:49:45;101615.63;;;23.24;55.90
75006;BME280;63553;51.814;4.600;2023-07-13T04:52:11;101614.31;;;23.14;56.56
75006;BME280;63553;51.814;4.600;2023-07-13T04:54:37;101611.19;;;23.27;56.27
75006;BME280;63553;51.814;4.600;2023-07-13T04:57:03;101612.06;;;23.31;56.08
75006;BME280;63553;51.814;4.600;2023-07-13T04:59:32;101616.41;;;23.21;56.12
75006;BME280;63553;51.814;4.600;2023-07-13T05:01:57;101616.72;;;23.12;56.59
75006;BME280;63553;51.814;4.600;2023-07-13T05:04:23;101617.00;;;22.67;57.88
75006;BME280;63553;51.814;4.600;2023-07-13T05:06:48;101610.66;;;22.51;57.58
75006;BME280;63553;51.814;4.600;2023-07-13T05:09:13;101615.44;;;22.43;58.47
75006;BME280;63553;51.814;4.600;2023-07-13T05:11:39;101623.25;;;23.16;56.14
75006;BME280;63553;51.814;4.600;2023-07-13T05:14:04;101624.75;;;23.03;56.25
75006;BME280;63553;51.814;4.600;2023-07-13T05:16:30;101627.72;;;22.25;58.92
75006;BME280;63553;51.814;4.600;2023-07-13T05:18:57;101625.31;;;22.83;57.09
75006;BME280;63553;51.814;4.600;2023-07-13T05:21:22;101629.53;;;22.66;58.05
75006;BME280;63553;51.814;4.600;2023-07-13T05:23:47;101638.34;;;22.05;59.70
75006;BME280;63553;51.814;4.600;2023-07-13T05:26:13;101630.94;;;22.23;58.57
75006;BME280;63553;51.814;4.600;2023-07-13T05:28:39;101629.69;;;22.77;57.64
75006;BME280;63553;51.814;4.600;2023-07-13T05:31:06;101626.06;;;22.50;58.78
75006;BME280;63553;51.814;4.600;2023-07-13T05:33:32;101628.59;;;22.29;58.93
75006;BME280;63553;51.814;4.600;2023-07-13T05:35:58;101628.06;;;22.49;58.53
75006;BME280;63553;51.814;4.600;2023-07-13T05:38:26;101640.75;;;22.29;58.58
75006;BME280;63553;51.814;4.600;2023-07-13T05:40:53;101640.50;;;23.01;57.13
75006;BME280;63553;51.814;4.600;2023-07-13T05:43:19;101634.84;;;22.67;58.26
75006;BME280;63553;51.814;4.600;2023-07-13T05:45:44;101647.03;;;22.45;58.90
75006;BME280;63553;51.814;4.600;2023-07-13T05:48:10;101649.66;;;22.87;57.52
75006;BME280;63553;51.814;4.600;2023-07-13T05:50:35;101651.09;;;23.07;57.10
75006;BME280;63553;51.814;4.600;2023-07-13T05:53:01;101652.88;;;23.19;56.48
75006;BME280;63553;51.814;4.600;2023-07-13T05:55:26;101659.75;;;22.85;57.06
75006;BME280;63553;51.814;4.600;2023-07-13T05:57:52;101668.00;;;22.97;57.17
75006;BME280;63553;51.814;4.600;2023-07-13T06:00:17;101671.25;;;22.95;56.80
75006;BME280;63553;51.814;4.600;2023-07-13T06:02:43;101671.88;;;23.15;56.94
75006;BME280;63553;51.814;4.600;2023-07-13T06:05:08;101673.97;;;22.88;57.26
75006;BME280;63553;51.814;4.600;2023-07-13T06:07:34;101667.13;;;22.89;57.54
75006;BME280;63553;51.814;4.600;2023-07-13T06:09:59;101671.53;;;22.60;58.52
75006;BME280;63553;51.814;4.600;2023-07-13T06:12:27;101671.22;;;23.29;56.82
75006;BME280;63553;51.814;4.600;2023-07-13T06:14:52;101683.19;;;23.11;57.29
75006;BME280;63553;51.814;4.600;2023-07-13T06:17:18;101679.91;;;22.76;57.64
75006;BME280;63553;51.814;4.600;2023-07-13T06:19:43;101696.31;;;22.93;58.26
75006;BME280;63553;51.814;4.600;2023-07-13T06:22:09;101685.91;;;23.04;58.70
75006;BME280;63553;51.814;4.600;2023-07-13T06:24:34;101687.69;;;22.83;59.47
75006;BME280;63553;51.814;4.600;2023-07-13T06:27:00;101688.28;;;23.32;65.15
75006;BME280;63553;51.814;4.600;2023-07-13T06:29:25;101682.56;;;24.09;60.17
75006;BME280;63553;51.814;4.600;2023-07-13T06:31:51;101689.16;;;24.17;64.61
75006;BME280;63553;51.814;4.600;2023-07-13T06:34:16;101689.56;;;24.19;57.21
75006;BME280;63553;51.814;4.600;2023-07-13T06:36:41;101684.09;;;24.00;58.20
75006;BME280;63553;51.814;4.600;2023-07-13T06:39:07;101689.16;;;23.36;57.56
75006;BME280;63553;51.814;4.600;2023-07-13T06:41:33;101689.06;;;24.10;56.82
75006;BME280;63553;51.814;4.600;2023-07-13T06:43:59;101688.91;;;23.92;58.00
75006;BME280;63553;51.814;4.600;2023-07-13T06:46:24;101686.28;;;23.69;58.30
75006;BME280;63553;51.814;4.600;2023-07-13T06:48:50;101689.91;;;23.66;57.47
75006;BME280;63553;51.814;4.600;2023-07-13T06:51:16;101688.88;;;23.89;56.96
75006;BME280;63553;51.814;4.600;2023-07-13T06:53:41;101687.72;;;23.97;55.38
75006;BME280;63553;51.814;4.600;2023-07-13T06:56:09;101695.09;;;24.59;54.37
75006;BME280;63553;51.814;4.600;2023-07-13T06:58:36;101697.31;;;24.83;54.31
75006;BME280;63553;51.814;4.600;2023-07-13T07:01:02;101698.88;;;24.16;53.35
75006;BME280;63553;51.814;4.600;2023-07-13T07:03:28;101705.16;;;25.11;53.22
75006;BME280;63553;51.814;4.600;2023-07-13T07:05:53;101693.94;;;25.50;51.56
75006;BME280;63553;51.814;4.600;2023-07-13T07:08:18;101701.28;;;25.62;50.89
75006;BME280;63553;51.814;4.600;2023-07-13T07:10:44;101700.44;;;25.72;50.39
75006;BME280;63553;51.814;4.600;2023-07-13T07:13:10;101704.53;;;25.95;50.42
75006;BME280;63553;51.814;4.600;2023-07-13T07:15:36;101711.56;;;24.87;51.36
75006;BME280;63553;51.814;4.600;2023-07-13T07:18:02;101710.88;;;25.18;51.00
75006;BME280;63553;51.814;4.600;2023-07-13T07:20:27;101712.75;;;24.86;51.66
75006;BME280;63553;51.814;4.600;2023-07-13T07:22:53;101712.00;;;24.31;53.27
75006;BME280;63553;51.814;4.600;2023-07-13T07:25:19;101712.50;;;23.96;54.69
75006;BME280;63553;51.814;4.600;2023-07-13T07:27:45;101725.00;;;24.36;53.33
75006;BME280;63553;51.814;4.600;2023-07-13T07:30:10;101714.88;;;24.38;53.21
75006;BME280;63553;51.814;4.600;2023-07-13T07:32:36;101730.53;;;24.14;54.93
75006;BME280;63553;51.814;4.600;2023-07-13T07:35:02;101733.88;;;24.27;53.96
75006;BME280;63553;51.814;4.600;2023-07-13T07:37:27;101742.47;;;24.34;53.91
75006;BME280;63553;51.814;4.600;2023-07-13T07:39:53;101727.66;;;24.11;55.59
75006;BME280;63553;51.814;4.600;2023-07-13T07:42:18;101740.78;;;24.26;54.75
75006;BME280;63553;51.814;4.600;2023-07-13T07:44:44;101743.94;;;24.17;55.07
75006;BME280;63553;51.814;4.600;2023-07-13T07:47:09;101738.84;;;24.37;53.71
75006;BME280;63553;51.814;4.600;2023-07-13T07:49:35;101736.66;;;23.39;56.93
75006;BME280;63553;51.814;4.600;2023-07-13T07:52:01;101732.19;;;24.19;54.63
75006;BME280;63553;51.814;4.600;2023-07-13T07:54:26;101731.53;;;23.55;56.88
75006;BME280;63553;51.814;4.600;2023-07-13T07:56:52;101738.38;;;23.88;56.01
75006;BME280;63553;51.814;4.600;2023-07-13T07:59:19;101739.34;;;24.06;55.70
75006;BME280;63553;51.814;4.600;2023-07-13T08:01:44;101749.81;;;24.97;52.90
75006;BME280;63553;51.814;4.600;2023-07-13T08:04:11;101751.69;;;25.54;51.96
75006;BME280;63553;51.814;4.600;2023-07-13T08:06:37;101753.38;;;25.62;50.35
75006;BME280;63553;51.814;4.600;2023-07-13T08:09:02;101745.22;;;25.75;49.96
75006;BME280;63553;51.814;4.600;2023-07-13T08:11:29;101739.94;;;26.86;47.22
75006;BME280;63553;51.814;4.600;2023-07-13T08:13:55;101743.19;;;26.95;47.74
75006;BME280;63553;51.814;4.600;2023-07-13T08:16:21;101748.09;;;26.91;48.19
75006;BME280;63553;51.814;4.600;2023-07-13T08:18:46;101748.13;;;26.03;49.07
75006;BME280;63553;51.814;4.600;2023-07-13T08:21:12;101752.59;;;25.83;50.18
75006;BME280;63553;51.814;4.600;2023-07-13T08:23:37;101746.44;;;25.63;50.35
75006;BME280;63553;51.814;4.600;2023-07-13T08:26:04;101746.91;;;26.11;49.20
75006;BME280;63553;51.814;4.600;2023-07-13T08:28:29;101739.63;;;26.24;49.59
75006;BME280;63553;51.814;4.600;2023-07-13T08:31:03;101735.13;;;26.41;49.44
75006;BME280;63553;51.814;4.600;2023-07-13T08:33:29;101737.13;;;26.58;49.08
75006;BME280;63553;51.814;4.600;2023-07-13T08:35:54;101743.66;;;26.13;49.19
75006;BME280;63553;51.814;4.600;2023-07-13T08:38:20;101740.78;;;25.77;50.04
75006;BME280;63553;51.814;4.600;2023-07-13T08:40:52;101731.84;;;26.07;49.66
75006;BME280;63553;51.814;4.600;2023-07-13T08:43:22;101724.94;;;26.22;48.88
75006;BME280;63553;51.814;4.600;2023-07-13T08:45:54;101738.59;;;25.39;50.40
75006;BME280;63553;51.814;4.600;2023-07-13T08:48:41;101745.13;;;25.43;50.10
75006;BME280;63553;51.814;4.600;2023-07-13T08:51:24;101741.38;;;25.14;49.50
75006;BME280;63553;51.814;4.600;2023-07-13T08:53:58;101739.41;;;25.36;48.88
75006;BME280;63553;51.814;4.600;2023-07-13T08:56:27;101733.44;;;26.61;46.91
75006;BME280;63553;51.814;4.600;2023-07-13T08:58:57;101729.31;;;26.97;45.87
75006;BME280;63553;51.814;4.600;2023-07-13T09:04:25;101734.31;;;26.23;46.32
75006;BME280;63553;51.814;4.600;2023-07-13T09:09:55;101729.72;;;26.96;44.49
75006;BME280;63553;51.814;4.600;2023-07-13T09:12:46;101732.66;;;26.57;45.27
75006;BME280;63553;51.814;4.600;2023-07-13T09:15:31;101730.97;;;26.88;43.84
75006;BME280;63553;51.814;4.600;2023-07-13T09:18:05;101727.69;;;26.79;44.59
75006;BME280;63553;51.814;4.600;2023-07-13T09:20:48;101739.56;;;26.03;46.02
75006;BME280;63553;51.814;4.600;2023-07-13T09:23:19;101747.31;;;25.88;45.71
75006;BME280;63553;51.814;4.600;2023-07-13T09:25:49;101741.44;;;25.35;46.42
75006;BME280;63553;51.814;4.600;2023-07-13T09:28:24;101749.28;;;25.56;45.19
75006;BME280;63553;51.814;4.600;2023-07-13T09:33:20;101754.56;;;25.61;44.64
75006;BME280;63553;51.814;4.600;2023-07-13T09:35:45;101754.59;;;25.79;44.07
75006;BME280;63553;51.814;4.600;2023-07-13T09:38:17;101744.88;;;26.12;43.37
75006;BME280;63553;51.814;4.600;2023-07-13T09:43:13;101756.66;;;25.89;43.91
75006;BME280;63553;51.814;4.600;2023-07-13T09:45:40;101751.38;;;25.91;44.31
75006;BME280;63553;51.814;4.600;2023-07-13T09:48:10;101761.16;;;26.01;44.42
75006;BME280;63553;51.814;4.600;2023-07-13T09:50:36;101751.34;;;25.73;44.38
75006;BME280;63553;51.814;4.600;2023-07-13T09:53:02;101768.03;;;25.68;44.71
75006;BME280;63553;51.814;4.600;2023-07-13T09:55:32;101766.47;;;26.37;43.09
75006;BME280;63553;51.814;4.600;2023-07-13T09:58:21;101770.44;;;25.69;44.33
75006;BME280;63553;51.814;4.600;2023-07-13T10:00:58;101774.38;;;25.33;45.00
75006;BME280;63553;51.814;4.600;2023-07-13T10:03:29;101784.66;;;25.55;44.41
75006;BME280;63553;51.814;4.600;2023-07-13T10:06:11;101787.53;;;25.59;44.04
75006;BME280;63553;51.814;4.600;2023-07-13T10:08:37;101790.00;;;25.78;44.34
75006;BME280;63553;51.814;4.600;2023-07-13T10:11:18;101788.94;;;25.17;45.70
75006;BME280;63553;51.814;4.600;2023-07-13T10:13:51;101791.13;;;25.49;45.00
75006;BME280;63553;51.814;4.600;2023-07-13T10:16:19;101797.97;;;25.33;45.59
75006;BME280;63553;51.814;4.600;2023-07-13T10:19:02;101798.88;;;25.48;44.69
75006;BME280;63553;51.814;4.600;2023-07-13T10:21:41;101801.78;;;24.86;45.66
75006;BME280;63553;51.814;4.600;2023-07-13T10:24:17;101811.66;;;25.10;45.27
75006;BME280;63553;51.814;4.600;2023-07-13T10:27:32;101798.03;;;25.44;44.64
75006;BME280;63553;51.814;4.600;2023-07-13T10:29:36;101802.53;;;25.49;44.16
75006;BME280;63553;51.814;4.600;2023-07-13T10:32:07;101807.53;;;25.01;44.41
75006;BME280;63553;51.814;4.600;2023-07-13T10:34:34;101801.97;;;25.22;43.70
75006;BME280;63553;51.814;4.600;2023-07-13T10:37:01;101814.09;;;25.05;44.06
75006;BME280;63553;51.814;4.600;2023-07-13T10:39:27;101812.88;;;25.06;43.15
75006;BME280;63553;51.814;4.600;2023-07-13T10:41:57;101805.00;;;24.81;43.88
75006;BME280;63553;51.814;4.600;2023-07-13T10:44:27;101822.91;;;24.89;43.92
75006;BME280;63553;51.814;4.600;2023-07-13T10:47:06;101815.69;;;24.99;43.82
75006;BME280;63553;51.814;4.600;2023-07-13T10:49:34;101816.88;;;24.98;43.81
75006;BME280;63553;51.814;4.600;2023-07-13T10:52:02;101820.63;;;25.09;44.36
75006;BME280;63553;51.814;4.600;2023-07-13T10:54:34;101814.28;;;24.78;44.38
75006;BME280;63553;51.814;4.600;2023-07-13T10:57:29;101815.41;;;24.63;44.49
75006;BME280;63553;51.814;4.600;2023-07-13T11:02:29;101818.84;;;24.39;44.28
75006;BME280;63553;51.814;4.600;2023-07-13T11:04:56;101818.22;;;24.60;44.07
75006;BME280;63553;51.814;4.600;2023-07-13T11:07:28;101817.59;;;24.80;43.21
75006;BME280;63553;51.814;4.600;2023-07-13T11:10:00;101817.44;;;24.63;43.73
75006;BME280;63553;51.814;4.600;2023-07-13T11:12:49;101827.31;;;24.79;43.50
75006;BME280;63553;51.814;4.600;2023-07-13T11:15:27;101822.69;;;24.61;43.90
75006;BME280;63553;51.814;4.600;2023-07-13T11:17:54;101823.44;;;24.54;44.13
75006;BME280;63553;51.814;4.600;2023-07-13T11:20:46;101824.78;;;24.67;43.67
75006;BME280;63553;51.814;4.600;2023-07-13T11:25:39;101826.59;;;24.42;45.14
75006;BME280;63553;51.814;4.600;2023-07-13T11:30:45;101828.16;;;24.36;46.05
75006;BME280;63553;51.814;4.600;2023-07-13T11:33:20;101815.03;;;24.68;45.66
75006;BME280;63553;51.814;4.600;2023-07-13T11:38:27;101825.09;;;24.55;46.28
75006;BME280;63553;51.814;4.600;2023-07-13T11:40:54;101824.69;;;24.57;45.64
75006;BME280;63553;51.814;4.600;2023-07-13T11:43:21;101821.88;;;24.60;46.28
75006;BME280;63553;51.814;4.600;2023-07-13T11:45:49;101818.19;;;24.53;46.36
75006;BME280;63553;51.814;4.600;2023-07-13T11:48:20;101825.41;;;24.43;47.34
75006;BME280;63553;51.814;4.600;2023-07-13T11:50:59;101826.53;;;24.35;47.65
75006;BME280;63553;51.814;4.600;2023-07-13T11:53:28;101829.84;;;24.41;47.60
75006;BME280;63553;51.814;4.600;2023-07-13T11:55:55;101830.19;;;24.36;47.48
75006;BME280;63553;51.814;4.600;2023-07-13T11:58:24;101836.66;;;24.32;47.41
75006;BME280;63553;51.814;4.600;2023-07-13T12:00:51;101830.13;;;24.28;47.07
75006;BME280;63553;51.814;4.600;2023-07-13T12:03:21;101828.28;;;24.47;46.71
75006;BME280;63553;51.814;4.600;2023-07-13T12:06:03;101835.16;;;24.46;46.57
75006;BME280;63553;51.814;4.600;2023-07-13T12:08:31;101841.94;;;24.30;47.12
75006;BME280;63553;51.814;4.600;2023-07-13T12:11:04;101827.75;;;24.34;47.21
75006;BME280;63553;51.814;4.600;2023-07-13T12:13:36;101834.94;;;24.21;46.85
75006;BME280;63553;51.814;4.600;2023-07-13T12:16:10;101831.66;;;24.19;46.92
75006;BME280;63553;51.814;4.600;2023-07-13T12:18:36;101832.09;;;24.21;46.91
75006;BME280;63553;51.814;4.600;2023-07-13T12:21:02;101833.56;;;24.08;47.15
75006;BME280;63553;51.814;4.600;2023-07-13T12:23:33;101834.06;;;24.13;47.15
75006;BME280;63553;51.814;4.600;2023-07-13T12:26:01;101837.78;;;24.21;47.29
75006;BME280;63553;51.814;4.600;2023-07-13T12:31:42;101831.66;;;24.19;47.41
75006;BME280;63553;51.814;4.600;2023-07-13T12:36:48;101829.38;;;24.35;47.18
75006;BME280;63553;51.814;4.600;2023-07-13T12:39:18;101839.53;;;24.36;46.06
75006;BME280;63553;51.814;4.600;2023-07-13T12:41:44;101831.41;;;24.35;45.50
75006;BME280;63553;51.814;4.600;2023-07-13T12:44:30;101830.53;;;24.27;44.37
75006;BME280;63553;51.814;4.600;2023-07-13T12:47:03;101830.09;;;24.25;44.08
75006;BME280;63553;51.814;4.600;2023-07-13T12:49:32;101834.59;;;24.26;43.53
75006;BME280;63553;51.814;4.600;2023-07-13T12:52:02;101823.59;;;24.24;44.30
75006;BME280;63553;51.814;4.600;2023-07-13T12:54:29;101821.16;;;24.26;45.28
75006;BME280;63553;51.814;4.600;2023-07-13T12:56:57;101826.81;;;24.19;47.14
75006;BME280;63553;51.814;4.600;2023-07-13T12:59:25;101833.84;;;23.96;48.03
75006;BME280;63553;51.814;4.600;2023-07-13T13:01:53;101840.25;;;23.89;48.10
75006;BME280;63553;51.814;4.600;2023-07-13T13:04:19;101838.84;;;23.72;48.21
75006;BME280;63553;51.814;4.600;2023-07-13T13:06:48;101853.47;;;23.74;48.06
75006;BME280;63553;51.814;4.600;2023-07-13T13:09:16;101846.50;;;23.68;48.25
75006;BME280;63553;51.814;4.600;2023-07-13T13:11:42;101835.56;;;23.70;48.17
75006;BME280;63553;51.814;4.600;2023-07-13T13:14:08;101850.47;;;23.60;48.24
75006;BME280;63553;51.814;4.600;2023-07-13T13:16:52;101844.22;;;23.48;48.42
75006;BME280;63553;51.814;4.600;2023-07-13T13:19:25;101853.38;;;23.67;48.06
75006;BME280;63553;51.814;4.600;2023-07-13T13:21:53;101850.22;;;23.76;48.11
75006;BME280;63553;51.814;4.600;2023-07-13T13:24:24;101853.63;;;23.89;48.17